EDT,Max TemperatureF,Mean TemperatureF,Min TemperatureF,Max Dew PointF,MeanDew PointF,Min DewpointF,Max Humidity, Mean Humidity, Min Humidity, Max Sea Level PressureIn, Mean Sea Level PressureIn, Min Sea Level PressureIn, Max VisibilityMiles, Mean VisibilityMiles, Min VisibilityMiles, Max Wind SpeedMPH, Mean Wind SpeedMPH, Max Gust SpeedMPH,PrecipitationIn, CloudCover, Events, WindDirDegrees
2013-4-1,45,38,30,32,24,16,75,56,37,30.15,30.00,29.81,10,10,10,21,10,28,0.00,4,,319
2013-4-2,44,35,26,21,17,14,75,53,30,30.29,30.22,30.16,10,10,10,18,7,24,0.00,1,,300
2013-4-3,48,36,24,20,17,13,81,55,28,30.45,30.36,30.29,10,10,10,17,5,24,0.00,0,,69
2013-4-4,59,45,30,22,18,14,63,40,17,30.35,30.15,29.99,10,10,10,13,5,17,0.00,0,,134
2013-4-5,57,46,34,30,24,19,59,42,24,30.16,30.07,29.97,10,10,10,17,6,22,0.00,0,,356
2013-4-6,68,52,35,35,27,21,64,44,24,30.17,30.05,29.82,10,10,10,20,12,30,0.00,2,,156
2013-4-7,72,61,50,39,39,38,59,53,47,29.96,29.95,29.94,10,10,10,29,12,39,T,0,,75
2013-4-8,73,62,50,55,50,39,77,64,51,29.96,29.87,29.81,10,10,10,25,11,35,0.00,5,,200
2013-4-9,83,68,52,57,53,49,89,62,34,30.00,29.93,29.85,10,10,6,28,11,38,0.00,4,,199
2013-4-10,82,68,53,64,58,51,86,70,54,29.89,29.83,29.75,10,7,1,30,13,41,0.98,7,Rain-Thunderstorm,182
2013-4-11,68,61,53,60,56,52,97,83,68,29.81,29.67,29.54,10,7,2,29,9,38,0.85,7,Rain-Thunderstorm,201
2013-4-12,53,46,38,52,37,28,89,73,57,29.90,29.71,29.55,10,9,2,24,15,31,0.07,8,Rain,268
2013-4-13,47,43,39,34,33,30,73,63,53,30.02,29.95,29.90,10,10,10,24,11,33,0.00,7,,261
2013-4-14,70,56,41,45,39,32,70,54,37,30.04,29.94,29.84,10,10,10,15,9,20,0.00,3,,149
2013-4-15,70,63,55,53,49,41,72,61,49,29.94,29.90,29.84,10,10,10,18,11,26,T,4,,190
2013-4-16,65,58,51,53,50,45,93,78,63,30.20,30.09,29.87,10,7,1,16,7,24,1.08,7,Rain-Thunderstorm,358
2013-4-17,74,62,49,65,52,43,93,81,68,30.23,30.12,29.90,10,7,2,22,9,26,0.40,7,Rain-Thunderstorm,81
2013-4-18,79,69,58,63,59,54,93,76,58,29.89,29.72,29.56,10,8,2,33,12,48,0.29,5,Rain-Thunderstorm,231
2013-4-19,61,48,35,58,35,28,89,75,60,29.94,29.73,29.50,10,7,1,30,17,41,0.50,8,Rain-Snow,267
2013-4-20,47,41,34,34,28,25,82,66,49,30.43,30.15,29.93,10,10,2,21,11,30,0.01,5,Snow,288
2013-4-21,53,42,30,33,26,22,73,56,39,30.55,30.47,30.40,10,10,10,15,8,21,0.00,0,,95
2013-4-22,68,51,34,40,33,30,89,57,24,30.38,30.25,30.12,10,10,9,16,5,18,0.00,0,,126
2013-4-23,69,61,53,55,47,36,84,63,42,30.12,29.97,29.77,10,9,1,20,9,28,0.42,5,Rain,188
2013-4-24,58,48,38,55,40,31,93,78,62,30.22,29.93,29.76,10,6,2,23,13,29,0.80,7,Rain,296
2013-4-25,53,46,38,38,31,27,76,59,41,30.38,30.26,30.20,10,10,10,30,10,38,0.00,2,,249
2013-4-26,62,48,34,36,32,28,82,59,35,30.44,30.39,30.34,10,10,10,12,5,15,0.00,0,,168
2013-4-27,68,55,42,49,38,30,72,52,31,30.34,30.21,30.03,10,10,10,20,8,25,T,3,Rain,152
2013-4-28,63,59,54,57,54,49,93,85,77,30.00,29.87,29.82,10,6,2,14,7,16,0.37,8,Rain,197
2013-4-29,68,63,57,55,53,50,93,76,58,29.99,29.93,29.88,10,7,3,13,7,18,0.00,6,,237
2013-4-30,80,68,55,58,53,49,83,63,43,30.03,29.98,29.94,10,10,7,16,9,21,0.00,0,,171